sensor_id;sensor_type;location;lat;lon;timestamp;P1;durP1;ratioP1;P2;durP2;ratioP2
61025;SDS011;46911;32.650;-16.902;2024-02-21T00:01:15;13.80;;;2.85;;
61025;SDS011;46911;32.650;-16.902;2024-02-21T00:03:17;14.27;;;3.88;;
61025;SDS011;46911;32.650;-16.902;2024-02-21T00:05:20;11.75;;;3.50;;
61025;SDS011;46911;32.650;-16.902;2024-02-21T00:07:23;14.43;;;3.70;;
61025;SDS011;46911;32.650;-16.902;2024-02-21T00:09:24;8.75;;;2.95;;
61025;SDS011;46911;32.650;-16.902;2024-02-21T00:11:28;13.13;;;3.50;;
61025;SDS011;46911;32.650;-16.902;2024-02-21T00:13:31;18.98;;;3.70;;
61025;SDS011;46911;32.650;-16.902;2024-02-21T00:15:33;13.52;;;2.97;;
61025;SDS011;46911;32.650;-16.902;2024-02-21T00:17:36;23.23;;;4.13;;
61025;SDS011;46911;32.650;-16.902;2024-02-21T00:19:37;21.20;;;4.30;;
61025;SDS011;46911;32.650;-16.902;2024-02-21T00:21:37;13.02;;;3.40;;
61025;SDS011;46911;32.650;-16.902;2024-02-21T00:23:38;9.45;;;3.22;;
61025;SDS011;46911;32.650;-16.902;2024-02-21T00:25:39;11.38;;;3.20;;
61025;SDS011;46911;32.650;-16.902;2024-02-21T00:27:42;12.55;;;3.55;;
61025;SDS011;46911;32.650;-16.902;2024-02-21T00:29:48;15.45;;;3.53;;
61025;SDS011;46911;32.650;-16.902;2024-02-21T00:31:49;14.63;;;4.03;;
61025;SDS011;46911;32.650;-16.902;2024-02-21T00:33:55;12.50;;;3.42;;
61025;SDS011;46911;32.650;-16.902;2024-02-21T00:35:56;13.13;;;3.95;;
61025;SDS011;46911;32.650;-16.902;2024-02-21T00:37:59;18.38;;;4.15;;
61025;SDS011;46911;32.650;-16.902;2024-02-21T00:40:00;21.58;;;4.10;;
61025;SDS011;46911;32.650;-16.902;2024-02-21T00:42:03;18.75;;;3.95;;
61025;SDS011;46911;32.650;-16.902;2024-02-21T00:44:07;12.18;;;3.97;;
61025;SDS011;46911;32.650;-16.902;2024-02-21T00:46:08;14.48;;;3.70;;
61025;SDS011;46911;32.650;-16.902;2024-02-21T00:48:13;14.50;;;3.83;;
61025;SDS011;46911;32.650;-16.902;2024-02-21T00:50:16;15.50;;;3.88;;
61025;SDS011;46911;32.650;-16.902;2024-02-21T00:52:17;17.58;;;3.97;;
61025;SDS011;46911;32.650;-16.902;2024-02-21T00:54:20;14.90;;;3.50;;
61025;SDS011;46911;32.650;-16.902;2024-02-21T00:56:21;16.15;;;4.88;;
61025;SDS011;46911;32.650;-16.902;2024-02-21T00:58:22;16.95;;;4.28;;
61025;SDS011;46911;32.650;-16.902;2024-02-21T01:00:23;18.30;;;4.03;;
61025;SDS011;46911;32.650;-16.902;2024-02-21T01:02:24;20.33;;;4.03;;
61025;SDS011;46911;32.650;-16.902;2024-02-21T01:04:25;14.90;;;4.28;;
61025;SDS011;46911;32.650;-16.902;2024-02-21T01:06:30;16.88;;;4.20;;
61025;SDS011;46911;32.650;-16.902;2024-02-21T01:08:36;16.52;;;4.25;;
61025;SDS011;46911;32.650;-16.902;2024-02-21T01:10:37;15.15;;;4.45;;
61025;SDS011;46911;32.650;-16.902;2024-02-21T01:12:40;14.57;;;4.85;;
61025;SDS011;46911;32.650;-16.902;2024-02-21T01:14:41;14.13;;;4.45;;
61025;SDS011;46911;32.650;-16.902;2024-02-21T01:16:42;15.43;;;5.00;;
61025;SDS011;46911;32.650;-16.902;2024-02-21T01:18:43;13.95;;;4.97;;
61025;SDS011;46911;32.650;-16.902;2024-02-21T01:20:46;12.63;;;4.93;;
61025;SDS011;46911;32.650;-16.902;2024-02-21T01:22:47;14.45;;;4.25;;
61025;SDS011;46911;32.650;-16.902;2024-02-21T01:24:50;14.00;;;5.65;;
61025;SDS011;46911;32.650;-16.902;2024-02-21T01:26:53;11.32;;;4.90;;
61025;SDS011;46911;32.650;-16.902;2024-02-21T01:28:58;11.85;;;4.63;;
61025;SDS011;46911;32.650;-16.902;2024-02-21T01:31:02;20.33;;;5.55;;
61025;SDS011;46911;32.650;-16.902;2024-02-21T01:33:04;15.98;;;5.13;;
61025;SDS011;46911;32.650;-16.902;2024-02-21T01:35:09;11.20;;;5.47;;
61025;SDS011;46911;32.650;-16.902;2024-02-21T01:37:10;16.77;;;5.40;;
61025;SDS011;46911;32.650;-16.902;2024-02-21T01:39:13;12.98;;;4.53;;
61025;SDS011;46911;32.650;-16.902;2024-02-21T01:41:14;14.27;;;4.82;;
61025;SDS011;46911;32.650;-16.902;2024-02-21T01:43:17;14.40;;;4.72;;
61025;SDS011;46911;32.650;-16.902;2024-02-21T01:45:19;9.73;;;4.65;;
61025;SDS011;46911;32.650;-16.902;2024-02-21T01:47:23;11.63;;;3.65;;
61025;SDS011;46911;32.650;-16.902;2024-02-21T01:49:27;12.52;;;3.78;;
61025;SDS011;46911;32.650;-16.902;2024-02-21T01:51:28;13.90;;;4.28;;
61025;SDS011;46911;32.650;-16.902;2024-02-21T01:53:38;11.20;;;3.90;;
61025;SDS011;46911;32.650;-16.902;2024-02-21T01:55:46;9.10;;;3.80;;
61025;SDS011;46911;32.650;-16.902;2024-02-21T01:57:52;14.13;;;3.78;;
61025;SDS011;46911;32.650;-16.902;2024-02-21T01:59:53;6.95;;;3.97;;
61025;SDS011;46911;32.650;-16.902;2024-02-21T02:01:57;10.55;;;3.28;;
61025;SDS011;46911;32.650;-16.902;2024-02-21T02:04:01;12.45;;;3.42;;
61025;SDS011;46911;32.650;-16.902;2024-02-21T02:06:05;14.48;;;2.80;;
61025;SDS011;46911;32.650;-16.902;2024-02-21T02:08:09;14.50;;;3.90;;
61025;SDS011;46911;32.650;-16.902;2024-02-21T02:10:11;8.85;;;3.40;;
61025;SDS011;46911;32.650;-16.902;2024-02-21T02:12:17;6.95;;;2.83;;
61025;SDS011;46911;32.650;-16.902;2024-02-21T02:14:23;13.20;;;3.42;;
61025;SDS011;46911;32.650;-16.902;2024-02-21T02:16:24;9.65;;;2.60;;
61025;SDS011;46911;32.650;-16.902;2024-02-21T02:18:27;7.32;;;2.97;;
61025;SDS011;46911;32.650;-16.902;2024-02-21T02:20:32;13.85;;;3.63;;
61025;SDS011;46911;32.650;-16.902;2024-02-21T02:22:33;11.50;;;3.60;;
61025;SDS011;46911;32.650;-16.902;2024-02-21T02:24:37;20.48;;;4.57;;
61025;SDS011;46911;32.650;-16.902;2024-02-21T02:26:43;13.43;;;3.80;;
61025;SDS011;46911;32.650;-16.902;2024-02-21T02:28:46;18.17;;;3.75;;
61025;SDS011;46911;32.650;-16.902;2024-02-21T02:30:47;14.85;;;3.45;;
61025;SDS011;46911;32.650;-16.902;2024-02-21T02:32:51;13.68;;;3.70;;
61025;SDS011;46911;32.650;-16.902;2024-02-21T02:34:59;12.63;;;3.78;;
61025;SDS011;46911;32.650;-16.902;2024-02-21T02:37:03;19.90;;;3.80;;
61025;SDS011;46911;32.650;-16.902;2024-02-21T02:39:07;13.77;;;4.20;;
61025;SDS011;46911;32.650;-16.902;2024-02-21T02:41:10;10.00;;;2.55;;
61025;SDS011;46911;32.650;-16.902;2024-02-21T02:43:11;27.83;;;3.22;;
61025;SDS011;46911;32.650;-16.902;2024-02-21T02:45:15;9.00;;;2.90;;
61025;SDS011;46911;32.650;-16.902;2024-02-21T02:47:18;12.63;;;3.17;;
61025;SDS011;46911;32.650;-16.902;2024-02-21T02:49:22;16.52;;;3.03;;
61025;SDS011;46911;32.650;-16.902;2024-02-21T02:51:23;10.98;;;2.65;;
61025;SDS011;46911;32.650;-16.902;2024-02-21T02:53:26;9.77;;;2.72;;
61025;SDS011;46911;32.650;-16.902;2024-02-21T02:55:32;13.13;;;2.95;;
61025;SDS011;46911;32.650;-16.902;2024-02-21T02:57:40;9.30;;;2.70;;
61025;SDS011;46911;32.650;-16.902;2024-02-21T02:59:47;16.27;;;2.80;;
61025;SDS011;46911;32.650;-16.902;2024-02-21T03:01:51;16.02;;;2.67;;
61025;SDS011;46911;32.650;-16.902;2024-02-21T03:03:52;9.50;;;2.55;;
61025;SDS011;46911;32.650;-16.902;2024-02-21T03:05:54;8.93;;;2.30;;
61025;SDS011;46911;32.650;-16.902;2024-02-21T03:07:55;7.38;;;2.33;;
61025;SDS011;46911;32.650;-16.902;2024-02-21T03:10:01;11.85;;;3.05;;
61025;SDS011;46911;32.650;-16.902;2024-02-21T03:12:06;16.00;;;2.65;;
61025;SDS011;46911;32.650;-16.902;2024-02-21T03:14:09;14.68;;;2.17;;
61025;SDS011;46911;32.650;-16.902;2024-02-21T03:16:11;9.40;;;2.30;;
61025;SDS011;46911;32.650;-16.902;2024-02-21T03:18:12;11.13;;;2.40;;
61025;SDS011;46911;32.650;-16.902;2024-02-21T03:20:15;10.00;;;2.95;;
61025;SDS011;46911;32.650;-16.902;2024-02-21T03:22:16;10.02;;;2.25;;
61025;SDS011;46911;32.650;-16.902;2024-02-21T03:24:19;13.82;;;2.58;;
61025;SDS011;46911;32.650;-16.902;2024-02-21T03:26:23;8.23;;;2.55;;
61025;SDS011;46911;32.650;-16.902;2024-02-21T03:28:24;10.60;;;2.25;;
61025;SDS011;46911;32.650;-16.902;2024-02-21T03:30:25;8.45;;;2.22;;
61025;SDS011;46911;32.650;-16.902;2024-02-21T03:32:28;12.68;;;2.58;;
61025;SDS011;46911;32.650;-16.902;2024-02-21T03:34:29;12.68;;;2.50;;
61025;SDS011;46911;32.650;-16.902;2024-02-21T03:36:30;12.50;;;2.40;;
61025;SDS011;46911;32.650;-16.902;2024-02-21T03:38:38;11.07;;;2.22;;
61025;SDS011;46911;32.650;-16.902;2024-02-21T03:40:41;12.27;;;2.60;;
61025;SDS011;46911;32.650;-16.902;2024-02-21T03:42:47;7.15;;;1.95;;
61025;SDS011;46911;32.650;-16.902;2024-02-21T03:44:50;8.93;;;1.77;;
61025;SDS011;46911;32.650;-16.902;2024-02-21T03:46:53;6.97;;;1.90;;
61025;SDS011;46911;32.650;-16.902;2024-02-21T03:49:00;7.57;;;2.00;;
61025;SDS011;46911;32.650;-16.902;2024-02-21T03:51:06;5.97;;;1.60;;
61025;SDS011;46911;32.650;-16.902;2024-02-21T03:53:10;10.13;;;1.50;;
61025;SDS011;46911;32.650;-16.902;2024-02-21T03:55:11;10.18;;;2.13;;
61025;SDS011;46911;32.650;-16.902;2024-02-21T03:57:12;10.27;;;1.98;;
61025;SDS011;46911;32.650;-16.902;2024-02-21T03:59:13;8.82;;;1.75;;
61025;SDS011;46911;32.650;-16.902;2024-02-21T04:01:18;10.13;;;1.88;;
61025;SDS011;46911;32.650;-16.902;2024-02-21T04:03:19;7.40;;;1.85;;
61025;SDS011;46911;32.650;-16.902;2024-02-21T04:05:23;8.40;;;1.50;;
61025;SDS011;46911;32.650;-16.902;2024-02-21T04:07:26;7.97;;;1.73;;
61025;SDS011;46911;32.650;-16.902;2024-02-21T04:09:29;7.05;;;1.65;;
61025;SDS011;46911;32.650;-16.902;2024-02-21T04:11:32;4.30;;;1.58;;
61025;SDS011;46911;32.650;-16.902;2024-02-21T04:13:33;12.18;;;1.75;;
61025;SDS011;46911;32.650;-16.902;2024-02-21T04:15:34;6.25;;;1.55;;
61025;SDS011;46911;32.650;-16.902;2024-02-21T04:17:39;7.97;;;1.75;;
61025;SDS011;46911;32.650;-16.902;2024-02-21T04:19:45;17.60;;;1.98;;
61025;SDS011;46911;32.650;-16.902;2024-02-21T04:21:48;5.07;;;1.30;;
61025;SDS011;46911;32.650;-16.902;2024-02-21T04:23:49;14.05;;;1.77;;
61025;SDS011;46911;32.650;-16.902;2024-02-21T04:25:50;3.58;;;1.40;;
61025;SDS011;46911;32.650;-16.902;2024-02-21T04:27:51;5.93;;;1.63;;
61025;SDS011;46911;32.650;-16.902;2024-02-21T04:29:57;8.00;;;1.55;;
61025;SDS011;46911;32.650;-16.902;2024-02-21T04:32:01;2.95;;;1.08;;
61025;SDS011;46911;32.650;-16.902;2024-02-21T04:34:05;4.72;;;1.17;;
61025;SDS011;46911;32.650;-16.902;2024-02-21T04:36:09;7.18;;;1.35;;
61025;SDS011;46911;32.650;-16.902;2024-02-21T04:38:12;4.10;;;1.05;;
61025;SDS011;46911;32.650;-16.902;2024-02-21T04:40:21;7.15;;;1.30;;
61025;SDS011;46911;32.650;-16.902;2024-02-21T04:42:22;7.28;;;1.25;;
61025;SDS011;46911;32.650;-16.902;2024-02-21T04:44:23;9.68;;;1.48;;
61025;SDS011;46911;32.650;-16.902;2024-02-21T04:46:26;5.75;;;1.10;;
61025;SDS011;46911;32.650;-16.902;2024-02-21T04:48:30;5.88;;;1.67;;
61025;SDS011;46911;32.650;-16.902;2024-02-21T04:50:34;7.00;;;1.48;;
61025;SDS011;46911;32.650;-16.902;2024-02-21T04:52:37;3.25;;;1.00;;
61025;SDS011;46911;32.650;-16.902;2024-02-21T04:54:44;9.13;;;1.15;;
61025;SDS011;46911;32.650;-16.902;2024-02-21T04:56:47;4.90;;;0.95;;
61025;SDS011;46911;32.650;-16.902;2024-02-21T04:58:48;10.10;;;2.22;;
61025;SDS011;46911;32.650;-16.902;2024-02-21T05:00:49;9.07;;;1.27;;
61025;SDS011;46911;32.650;-16.902;2024-02-21T05:02:50;3.08;;;1.25;;
61025;SDS011;46911;32.650;-16.902;2024-02-21T05:04:51;5.85;;;1.20;;
61025;SDS011;46911;32.650;-16.902;2024-02-21T05:06:52;9.73;;;1.30;;
61025;SDS011;46911;32.650;-16.902;2024-02-21T05:08:58;8.27;;;1.42;;
61025;SDS011;46911;32.650;-16.902;2024-02-21T05:11:04;8.55;;;1.63;;
61025;SDS011;46911;32.650;-16.902;2024-02-21T05:13:10;10.63;;;1.90;;
61025;SDS011;46911;32.650;-16.902;2024-02-21T05:15:11;7.82;;;1.35;;
61025;SDS011;46911;32.650;-16.902;2024-02-21T05:17:12;7.10;;;1.40;;
61025;SDS011;46911;32.650;-16.902;2024-02-21T05:19:15;6.10;;;1.48;;
61025;SDS011;46911;32.650;-16.902;2024-02-21T05:21:16;7.13;;;1.10;;
61025;SDS011;46911;32.650;-16.902;2024-02-21T05:23:20;6.05;;;1.08;;
61025;SDS011;46911;32.650;-16.902;2024-02-21T05:25:23;7.38;;;1.27;;
61025;SDS011;46911;32.650;-16.902;2024-02-21T05:27:24;8.25;;;1.38;;
61025;SDS011;46911;32.650;-16.902;2024-02-21T05:29:27;5.13;;;1.27;;
61025;SDS011;46911;32.650;-16.902;2024-02-21T05:31:43;4.93;;;1.10;;
61025;SDS011;46911;32.650;-16.902;2024-02-21T05:33:52;9.00;;;0.95;;
61025;SDS011;46911;32.650;-16.902;2024-02-21T05:35:55;3.85;;;1.30;;
61025;SDS011;46911;32.650;-16.902;2024-02-21T05:37:55;6.20;;;1.27;;
61025;SDS011;46911;32.650;-16.902;2024-02-21T05:39:56;3.30;;;1.00;;
61025;SDS011;46911;32.650;-16.902;2024-02-21T05:41:57;5.30;;;1.30;;
61025;SDS011;46911;32.650;-16.902;2024-02-21T05:44:00;3.40;;;1.48;;
61025;SDS011;46911;32.650;-16.902;2024-02-21T05:46:04;8.70;;;1.27;;
61025;SDS011;46911;32.650;-16.902;2024-02-21T05:48:05;6.75;;;1.30;;
61025;SDS011;46911;32.650;-16.902;2024-02-21T05:50:06;5.47;;;1.30;;
61025;SDS011;46911;32.650;-16.902;2024-02-21T05:52:09;5.05;;;1.10;;
61025;SDS011;46911;32.650;-16.902;2024-02-21T05:54:10;4.20;;;1.20;;
61025;SDS011;46911;32.650;-16.902;2024-02-21T05:56:13;5.22;;;1.23;;
61025;SDS011;46911;32.650;-16.902;2024-02-21T05:58:17;4.63;;;1.30;;
61025;SDS011;46911;32.650;-16.902;2024-02-21T06:00:18;8.75;;;1.73;;
61025;SDS011;46911;32.650;-16.902;2024-02-21T06:02:18;7.72;;;1.88;;
61025;SDS011;46911;32.650;-16.902;2024-02-21T06:04:22;5.30;;;1.58;;
61025;SDS011;46911;32.650;-16.902;2024-02-21T06:06:23;16.23;;;2.00;;
61025;SDS011;46911;32.650;-16.902;2024-02-21T06:08:24;4.53;;;1.40;;
61025;SDS011;46911;32.650;-16.902;2024-02-21T06:10:27;4.68;;;1.33;;
61025;SDS011;46911;32.650;-16.902;2024-02-21T06:12:35;5.38;;;1.88;;
61025;SDS011;46911;32.650;-16.902;2024-02-21T06:14:38;21.50;;;1.83;;
61025;SDS011;46911;32.650;-16.902;2024-02-21T06:16:39;10.57;;;1.75;;
61025;SDS011;46911;32.650;-16.902;2024-02-21T06:18:42;6.43;;;1.55;;
61025;SDS011;46911;32.650;-16.902;2024-02-21T06:20:43;7.13;;;1.58;;
61025;SDS011;46911;32.650;-16.902;2024-02-21T06:22:47;10.05;;;1.63;;
61025;SDS011;46911;32.650;-16.902;2024-02-21T06:24:50;14.70;;;1.30;;
61025;SDS011;46911;32.650;-16.902;2024-02-21T06:26:56;13.02;;;1.38;;
61025;SDS011;46911;32.650;-16.902;2024-02-21T06:29:05;7.85;;;1.60;;
61025;SDS011;46911;32.650;-16.902;2024-02-21T06:31:09;4.40;;;1.55;;
61025;SDS011;46911;32.650;-16.902;2024-02-21T06:33:14;9.18;;;1.77;;
61025;SDS011;46911;32.650;-16.902;2024-02-21T06:35:15;7.78;;;1.50;;
61025;SDS011;46911;32.650;-16.902;2024-02-21T06:37:17;9.40;;;1.55;;
61025;SDS011;46911;32.650;-16.902;2024-02-21T06:39:18;9.55;;;1.90;;
61025;SDS011;46911;32.650;-16.902;2024-02-21T06:41:21;4.38;;;1.20;;
61025;SDS011;46911;32.650;-16.902;2024-02-21T06:43:25;6.88;;;1.52;;
61025;SDS011;46911;32.650;-16.902;2024-02-21T06:45:29;7.97;;;1.63;;
61025;SDS011;46911;32.650;-16.902;2024-02-21T06:47:29;8.73;;;1.50;;
61025;SDS011;46911;32.650;-16.902;2024-02-21T06:49:30;10.27;;;1.70;;
61025;SDS011;46911;32.650;-16.902;2024-02-21T06:51:34;17.83;;;3.22;;
61025;SDS011;46911;32.650;-16.902;2024-02-21T06:53:37;7.50;;;1.40;;
61025;SDS011;46911;32.650;-16.902;2024-02-21T06:55:38;10.93;;;1.80;;
61025;SDS011;46911;32.650;-16.902;2024-02-21T06:57:43;11.70;;;2.10;;
61025;SDS011;46911;32.650;-16.902;2024-02-21T06:59:44;5.03;;;1.45;;
61025;SDS011;46911;32.650;-16.902;2024-02-21T07:01:48;6.47;;;1.50;;
61025;SDS011;46911;32.650;-16.902;2024-02-21T07:03:50;5.70;;;1.65;;
61025;SDS011;46911;32.650;-16.902;2024-02-21T07:05:53;5.00;;;1.23;;
61025;SDS011;46911;32.650;-16.902;2024-02-21T07:07:57;6.10;;;2.10;;
61025;SDS011;46911;32.650;-16.902;2024-02-21T07:10:00;7.93;;;1.60;;
61025;SDS011;46911;32.650;-16.902;2024-02-21T07:12:05;6.75;;;1.48;;
61025;SDS011;46911;32.650;-16.902;2024-02-21T07:14:09;10.82;;;1.98;;
61025;SDS011;46911;32.650;-16.902;2024-02-21T07:16:14;6.07;;;1.60;;
61025;SDS011;46911;32.650;-16.902;2024-02-21T07:18:17;8.30;;;2.28;;
61025;SDS011;46911;32.650;-16.902;2024-02-21T07:20:18;12.88;;;2.05;;
61025;SDS011;46911;32.650;-16.902;2024-02-21T07:22:24;14.85;;;2.17;;
61025;SDS011;46911;32.650;-16.902;2024-02-21T07:24:31;6.78;;;1.40;;
61025;SDS011;46911;32.650;-16.902;2024-02-21T07:26:35;14.43;;;1.98;;
61025;SDS011;46911;32.650;-16.902;2024-02-21T07:28:38;7.47;;;2.38;;
61025;SDS011;46911;32.650;-16.902;2024-02-21T07:30:39;17.63;;;2.35;;
61025;SDS011;46911;32.650;-16.902;2024-02-21T07:32:40;6.60;;;1.60;;
61025;SDS011;46911;32.650;-16.902;2024-02-21T07:34:44;5.88;;;1.70;;
61025;SDS011;46911;32.650;-16.902;2024-02-21T07:36:45;7.20;;;1.80;;
61025;SDS011;46911;32.650;-16.902;2024-02-21T07:38:46;5.97;;;1.70;;
61025;SDS011;46911;32.650;-16.902;2024-02-21T07:40:46;15.05;;;2.00;;
61025;SDS011;46911;32.650;-16.902;2024-02-21T07:42:47;5.93;;;1.60;;
61025;SDS011;46911;32.650;-16.902;2024-02-21T07:44:54;7.18;;;1.88;;
61025;SDS011;46911;32.650;-16.902;2024-02-21T07:46:56;3.72;;;1.60;;
61025;SDS011;46911;32.650;-16.902;2024-02-21T07:49:00;9.88;;;2.10;;
61025;SDS011;46911;32.650;-16.902;2024-02-21T07:51:01;8.85;;;1.92;;
61025;SDS011;46911;32.650;-16.902;2024-02-21T07:53:02;8.93;;;2.80;;
61025;SDS011;46911;32.650;-16.902;2024-02-21T07:55:05;17.77;;;2.10;;
61025;SDS011;46911;32.650;-16.902;2024-02-21T07:57:07;10.68;;;1.95;;
61025;SDS011;46911;32.650;-16.902;2024-02-21T07:59:08;7.28;;;2.25;;
61025;SDS011;46911;32.650;-16.902;2024-02-21T08:01:19;7.97;;;2.08;;
61025;SDS011;46911;32.650;-16.902;2024-02-21T08:03:21;13.45;;;2.10;;
61025;SDS011;46911;32.650;-16.902;2024-02-21T08:05:26;6.18;;;1.95;;
61025;SDS011;46911;32.650;-16.902;2024-02-21T08:07:27;10.80;;;1.75;;
61025;SDS011;46911;32.650;-16.902;2024-02-21T08:09:31;11.35;;;1.80;;
61025;SDS011;46911;32.650;-16.902;2024-02-21T08:11:32;7.88;;;1.77;;
61025;SDS011;46911;32.650;-16.902;2024-02-21T08:13:33;5.78;;;1.65;;
61025;SDS011;46911;32.650;-16.902;2024-02-21T08:15:34;5.55;;;1.50;;
61025;SDS011;46911;32.650;-16.902;2024-02-21T08:17:35;13.25;;;1.92;;
61025;SDS011;46911;32.650;-16.902;2024-02-21T08:19:36;3.05;;;1.48;;
61025;SDS011;46911;32.650;-16.902;2024-02-21T08:21:39;14.00;;;1.85;;
61025;SDS011;46911;32.650;-16.902;2024-02-21T08:23:42;5.82;;;1.73;;
61025;SDS011;46911;32.650;-16.902;2024-02-21T08:25:43;8.35;;;1.88;;
61025;SDS011;46911;32.650;-16.902;2024-02-21T08:27:47;10.65;;;1.80;;
61025;SDS011;46911;32.650;-16.902;2024-02-21T08:29:50;7.50;;;1.73;;
61025;SDS011;46911;32.650;-16.902;2024-02-21T08:31:53;5.00;;;1.38;;
61025;SDS011;46911;32.650;-16.902;2024-02-21T08:33:57;7.93;;;1.50;;
61025;SDS011;46911;32.650;-16.902;2024-02-21T08:36:05;8.02;;;1.50;;
61025;SDS011;46911;32.650;-16.902;2024-02-21T08:38:06;4.88;;;1.30;;
61025;SDS011;46911;32.650;-16.902;2024-02-21T08:40:09;6.57;;;1.88;;
61025;SDS011;46911;32.650;-16.902;2024-02-21T08:42:11;8.40;;;1.67;;
61025;SDS011;46911;32.650;-16.902;2024-02-21T08:44:11;8.30;;;1.63;;
61025;SDS011;46911;32.650;-16.902;2024-02-21T08:46:14;18.90;;;1.80;;
61025;SDS011;46911;32.650;-16.902;2024-02-21T08:48:21;9.05;;;1.80;;
61025;SDS011;46911;32.650;-16.902;2024-02-21T08:50:24;4.07;;;1.20;;
61025;SDS011;46911;32.650;-16.902;2024-02-21T08:52:28;3.50;;;1.35;;
61025;SDS011;46911;32.650;-16.902;2024-02-21T08:54:29;8.70;;;1.42;;
61025;SDS011;46911;32.650;-16.902;2024-02-21T08:56:30;6.35;;;1.77;;
61025;SDS011;46911;32.650;-16.902;2024-02-21T08:58:35;7.72;;;1.67;;
61025;SDS011;46911;32.650;-16.902;2024-02-21T09:00:37;8.40;;;1.55;;
61025;SDS011;46911;32.650;-16.902;2024-02-21T09:02:41;6.13;;;1.77;;
61025;SDS011;46911;32.650;-16.902;2024-02-21T09:04:48;12.20;;;2.08;;
61025;SDS011;46911;32.650;-16.902;2024-02-21T09:06:51;12.18;;;1.73;;
61025;SDS011;46911;32.650;-16.902;2024-02-21T09:08:57;8.60;;;1.95;;
61025;SDS011;46911;32.650;-16.902;2024-02-21T09:11:00;6.25;;;1.30;;
61025;SDS011;46911;32.650;-16.902;2024-02-21T09:13:04;9.07;;;1.30;;
61025;SDS011;46911;32.650;-16.902;2024-02-21T09:15:05;6.93;;;1.67;;
61025;SDS011;46911;32.650;-16.902;2024-02-21T09:17:09;7.40;;;1.33;;
61025;SDS011;46911;32.650;-16.902;2024-02-21T09:19:13;8.43;;;1.80;;
61025;SDS011;46911;32.650;-16.902;2024-02-21T09:21:13;12.32;;;1.65;;
61025;SDS011;46911;32.650;-16.902;2024-02-21T09:23:19;5.25;;;1.75;;
61025;SDS011;46911;32.650;-16.902;2024-02-21T09:27:28;4.68;;;1.98;;
61025;SDS011;46911;32.650;-16.902;2024-02-21T09:29:29;6.22;;;2.00;;
61025;SDS011;46911;32.650;-16.902;2024-02-21T09:31:29;6.50;;;2.15;;
61025;SDS011;46911;32.650;-16.902;2024-02-21T09:33:36;14.52;;;1.90;;
61025;SDS011;46911;32.650;-16.902;2024-02-21T09:35:37;9.45;;;1.73;;
61025;SDS011;46911;32.650;-16.902;2024-02-21T09:37:38;11.05;;;1.77;;
61025;SDS011;46911;32.650;-16.902;2024-02-21T09:39:49;5.63;;;1.77;;
61025;SDS011;46911;32.650;-16.902;2024-02-21T09:41:58;13.98;;;2.22;;
61025;SDS011;46911;32.650;-16.902;2024-02-21T09:44:04;9.32;;;1.63;;
61025;SDS011;46911;32.650;-16.902;2024-02-21T09:46:05;13.52;;;2.22;;
61025;SDS011;46911;32.650;-16.902;2024-02-21T09:50:32;13.55;;;1.77;;
61025;SDS011;46911;32.650;-16.902;2024-02-21T09:52:40;10.57;;;1.65;;
61025;SDS011;46911;32.650;-16.902;2024-02-21T09:54:44;5.28;;;1.45;;
61025;SDS011;46911;32.650;-16.902;2024-02-21T09:56:46;14.48;;;1.88;;
61025;SDS011;46911;32.650;-16.902;2024-02-21T09:58:50;2.72;;;0.80;;
61025;SDS011;46911;32.650;-16.902;2024-02-21T10:00:51;7.90;;;1.20;;
61025;SDS011;46911;32.650;-16.902;2024-02-21T10:02:58;7.80;;;1.20;;
61025;SDS011;46911;32.650;-16.902;2024-02-21T10:04:59;13.23;;;1.88;;
61025;SDS011;46911;32.650;-16.902;2024-02-21T10:07:04;8.65;;;1.10;;
61025;SDS011;46911;32.650;-16.902;2024-02-21T10:09:08;6.03;;;1.13;;
61025;SDS011;46911;32.650;-16.902;2024-02-21T10:11:11;7.05;;;1.50;;
61025;SDS011;46911;32.650;-16.902;2024-02-21T10:13:30;10.93;;;1.65;;
61025;SDS011;46911;32.650;-16.902;2024-02-21T10:15:33;8.60;;;1.30;;
61025;SDS011;46911;32.650;-16.902;2024-02-21T10:17:36;6.68;;;1.20;;
61025;SDS011;46911;32.650;-16.902;2024-02-21T10:19:43;8.43;;;1.60;;
61025;SDS011;46911;32.650;-16.902;2024-02-21T10:22:00;7.40;;;1.38;;
61025;SDS011;46911;32.650;-16.902;2024-02-21T10:24:05;4.97;;;1.02;;
61025;SDS011;46911;32.650;-16.902;2024-02-21T10:26:09;5.22;;;1.10;;
61025;SDS011;46911;32.650;-16.902;2024-02-21T10:28:12;8.48;;;1.15;;
61025;SDS011;46911;32.650;-16.902;2024-02-21T10:30:13;4.15;;;1.00;;
61025;SDS011;46911;32.650;-16.902;2024-02-21T10:32:20;6.78;;;1.30;;
61025;SDS011;46911;32.650;-16.902;2024-02-21T10:34:23;19.95;;;1.65;;
61025;SDS011;46911;32.650;-16.902;2024-02-21T10:36:26;4.20;;;0.93;;
61025;SDS011;46911;32.650;-16.902;2024-02-21T10:38:29;7.88;;;1.23;;
61025;SDS011;46911;32.650;-16.902;2024-02-21T10:40:30;15.23;;;1.33;;
61025;SDS011;46911;32.650;-16.902;2024-02-21T10:42:31;8.43;;;1.30;;
61025;SDS011;46911;32.650;-16.902;2024-02-21T10:44:38;5.72;;;1.30;;
61025;SDS011;46911;32.650;-16.902;2024-02-21T10:46:42;7.63;;;1.45;;
61025;SDS011;46911;32.650;-16.902;2024-02-21T10:48:47;5.47;;;1.10;;
61025;SDS011;46911;32.650;-16.902;2024-02-21T10:51:08;9.40;;;1.23;;
61025;SDS011;46911;32.650;-16.902;2024-02-21T10:55:41;7.47;;;1.17;;
61025;SDS011;46911;32.650;-16.902;2024-02-21T10:57:51;9.23;;;1.85;;
61025;SDS011;46911;32.650;-16.902;2024-02-21T10:59:58;6.60;;;1.80;;
61025;SDS011;46911;32.650;-16.902;2024-02-21T11:01:59;8.23;;;1.85;;
61025;SDS011;46911;32.650;-16.902;2024-02-21T11:04:06;5.80;;;1.55;;
61025;SDS011;46911;32.650;-16.902;2024-02-21T11:06:14;5.93;;;1.52;;
61025;SDS011;46911;32.650;-16.902;2024-02-21T11:08:16;10.70;;;2.10;;
61025;SDS011;46911;32.650;-16.902;2024-02-21T11:10:24;11.80;;;2.33;;
61025;SDS011;46911;32.650;-16.902;2024-02-21T11:12:32;10.70;;;2.70;;
61025;SDS011;46911;32.650;-16.902;2024-02-21T11:14:33;8.45;;;1.55;;
61025;SDS011;46911;32.650;-16.902;2024-02-21T11:16:41;8.32;;;1.83;;
61025;SDS011;46911;32.650;-16.902;2024-02-21T11:18:43;6.25;;;2.35;;
61025;SDS011;46911;32.650;-16.902;2024-02-21T11:20:49;9.77;;;2.28;;
61025;SDS011;46911;32.650;-16.902;2024-02-21T11:23:00;6.65;;;1.70;;
61025;SDS011;46911;32.650;-16.902;2024-02-21T11:25:07;5.13;;;1.10;;
61025;SDS011;46911;32.650;-16.902;2024-02-21T11:27:16;7.53;;;1.30;;
61025;SDS011;46911;32.650;-16.902;2024-02-21T11:29:26;26.27;;;3.67;;
61025;SDS011;46911;32.650;-16.902;2024-02-21T11:31:27;20.08;;;3.13;;
61025;SDS011;46911;32.650;-16.902;2024-02-21T11:33:43;10.50;;;1.70;;
61025;SDS011;46911;32.650;-16.902;2024-02-21T11:35:52;3.97;;;1.23;;
61025;SDS011;46911;32.650;-16.902;2024-02-21T11:37:53;9.40;;;2.03;;
61025;SDS011;46911;32.650;-16.902;2024-02-21T11:39:57;7.82;;;1.63;;
61025;SDS011;46911;32.650;-16.902;2024-02-21T11:42:04;15.32;;;1.88;;
61025;SDS011;46911;32.650;-16.902;2024-02-21T11:44:09;9.52;;;2.13;;
61025;SDS011;46911;32.650;-16.902;2024-02-21T11:46:15;10.10;;;1.88;;
61025;SDS011;46911;32.650;-16.902;2024-02-21T11:48:21;10.20;;;1.90;;
61025;SDS011;46911;32.650;-16.902;2024-02-21T11:50:22;10.73;;;1.92;;
61025;SDS011;46911;32.650;-16.902;2024-02-21T11:52:25;15.68;;;1.88;;
61025;SDS011;46911;32.650;-16.902;2024-02-21T11:54:34;6.00;;;1.48;;
61025;SDS011;46911;32.650;-16.902;2024-02-21T11:56:35;5.50;;;1.35;;
61025;SDS011;46911;32.650;-16.902;2024-02-21T11:58:40;9.20;;;1.70;;
61025;SDS011;46911;32.650;-16.902;2024-02-21T12:00:43;15.93;;;1.70;;
61025;SDS011;46911;32.650;-16.902;2024-02-21T12:02:47;7.20;;;1.60;;
61025;SDS011;46911;32.650;-16.902;2024-02-21T12:04:51;10.20;;;2.55;;